Terminal Aerodrome Forecast
Issued by NWS Chicago, IL

Home | Current Version | Previous Version | Text Only | Print | Product List | Glossary Off
Versions: 1 2 3 4 5 6 7 8 9 10 11 12 13 14 15 16 17 18 19 20 21 22 23 24 25 26 27 28 29 30

000
FTUS43 KLOT 201600 AAB
TAFRFD
TAF AMD
KRFD 201600Z 2016/2112 20013G18KT P6SM FEW120 BKN250
     FM210100 18008KT P6SM BKN150
     FM211000 20007KT P6SM SCT060 BKN100=

USA.gov is the U.S. government's official web portal to all federal, state and local government web resources and services.